createdAt,value
2022-08-05T00:01:20.543Z,25.40
2022-08-05T00:04:13.912Z,25.50
2022-08-05T00:06:59.723Z,25.50
2022-08-05T00:09:45.695Z,25.30
2022-08-05T00:12:31.354Z,25.20
2022-08-05T00:15:57.674Z,25.30
2022-08-05T00:18:22.897Z,25.30
2022-08-05T00:21:08.836Z,25.30
2022-08-05T00:24:10.756Z,25.40
2022-08-05T00:26:56.978Z,25.30
2022-08-05T00:29:44.682Z,25.20
2022-08-05T00:32:30.223Z,25.10
2022-08-05T00:35:16.104Z,25.00
2022-08-05T00:38:05.884Z,25.00
2022-08-05T00:40:57.462Z,25.00
2022-08-05T00:43:47.012Z,24.90
2022-08-05T00:46:42.815Z,24.90
2022-08-05T00:49:32.503Z,24.90
2022-08-05T00:52:28.787Z,24.80
2022-08-05T00:55:14.969Z,24.80
2022-08-05T00:58:01.221Z,24.90
2022-08-05T01:00:47.784Z,24.80
2022-08-05T01:03:35.719Z,24.70
2022-08-05T01:06:21.423Z,24.70
2022-08-05T01:09:14.689Z,24.50
2022-08-05T01:12:18.170Z,24.50
2022-08-05T01:15:35.388Z,24.40
2022-08-05T01:18:19.618Z,24.40
2022-08-05T01:21:38.325Z,24.50
2022-08-05T01:24:51.945Z,24.50
2022-08-05T01:27:50.520Z,24.50
2022-08-05T01:30:55.178Z,24.40
2022-08-05T01:33:53.627Z,24.30
2022-08-05T01:36:47.841Z,24.20
2022-08-05T01:39:46.750Z,24.20
2022-08-05T01:42:36.562Z,24.10
2022-08-05T01:45:24.777Z,24.10
2022-08-05T01:48:12.386Z,24.10
2022-08-05T01:51:00.707Z,24.00
2022-08-05T01:54:00.406Z,24.00
2022-08-05T01:58:11.161Z,24.00
2022-08-05T01:59:59.247Z,24.00
2022-08-05T02:02:54.874Z,24.00
2022-08-05T02:05:43.305Z,23.90
2022-08-05T02:08:31.234Z,23.90
2022-08-05T02:11:23.558Z,24.00
2022-08-05T02:14:14.611Z,24.00
2022-08-05T02:17:08.516Z,23.90
2022-08-05T02:20:07.325Z,23.70
2022-08-05T02:23:08.816Z,23.50
2022-08-05T02:25:57.280Z,23.60
2022-08-05T02:28:47.774Z,23.40
2022-08-05T02:31:35.622Z,23.30
2022-08-05T02:34:22.749Z,23.30
2022-08-05T02:37:10.037Z,23.20
2022-08-05T02:39:55.905Z,23.30
2022-08-05T02:42:42.760Z,23.20
2022-08-05T02:45:52.912Z,23.20
2022-08-05T02:48:39.755Z,23.30
2022-08-05T02:52:02.824Z,23.30
2022-08-05T02:54:37.714Z,23.20
2022-08-05T02:58:11.988Z,23.10
2022-08-05T03:00:36.898Z,23.10
2022-08-05T03:03:26.090Z,23.10
2022-08-05T03:06:53.647Z,23.10
2022-08-05T03:09:18.058Z,23.00
2022-08-05T03:12:32.797Z,23.00
2022-08-05T03:15:18.341Z,22.90
2022-08-05T03:18:04.077Z,22.90
2022-08-05T03:20:53.464Z,22.90
2022-08-05T03:23:42.828Z,22.90
2022-08-05T03:26:32.707Z,22.90
2022-08-05T03:29:18.242Z,22.80
2022-08-05T03:32:05.676Z,22.80
2022-08-05T03:34:54.692Z,23.00
2022-08-05T03:37:46.410Z,23.40
2022-08-05T03:40:32.909Z,23.50
2022-08-05T03:44:08.958Z,23.80
2022-08-05T03:46:29.534Z,24.00
2022-08-05T03:49:16.360Z,24.20
2022-08-05T03:52:37.397Z,24.00
2022-08-05T03:56:01.099Z,24.20
2022-08-05T03:58:33.364Z,23.80
2022-08-05T04:01:22.601Z,23.30
2022-08-05T04:04:10.997Z,23.10
2022-08-05T04:06:58.048Z,23.00
2022-08-05T04:09:53.769Z,23.20
2022-08-05T04:15:24.460Z,23.50
2022-08-05T04:18:12.712Z,23.50
2022-08-05T04:21:07.599Z,23.40
2022-08-05T04:24:06.460Z,23.60
2022-08-05T04:26:54.421Z,23.70
2022-08-05T04:29:40.248Z,23.70
2022-08-05T04:32:30.709Z,23.70
2022-08-05T04:35:19.382Z,23.70
2022-08-05T04:38:06.635Z,23.80
2022-08-05T04:40:52.370Z,23.90
2022-08-05T04:43:40.693Z,23.90
2022-08-05T04:46:33.927Z,23.90
2022-08-05T04:49:19.329Z,23.90
2022-08-05T04:52:10.310Z,23.90
2022-08-05T04:54:58.855Z,23.70
2022-08-05T04:57:47.899Z,23.80
2022-08-05T05:00:38.522Z,23.80
2022-08-05T05:03:23.963Z,23.90
2022-08-05T05:06:38.944Z,24.20
2022-08-05T05:09:19.019Z,24.50
2022-08-05T05:12:05.245Z,24.80
2022-08-05T05:14:51.892Z,24.90
2022-08-05T05:17:56.645Z,24.90
2022-08-05T05:20:46.082Z,24.90
2022-08-05T05:23:39.080Z,24.80
2022-08-05T05:26:37.419Z,25.00
2022-08-05T05:29:25.225Z,24.80
2022-08-05T05:32:30.845Z,24.80
2022-08-05T05:35:19.942Z,24.60
2022-08-05T05:38:09.086Z,24.50
2022-08-05T05:40:57.655Z,24.30
2022-08-05T05:43:58.293Z,24.30
2022-08-05T05:46:45.791Z,24.10
2022-08-05T05:49:33.460Z,24.00
2022-08-05T05:52:28.341Z,24.00
2022-08-05T05:55:18.786Z,23.90
2022-08-05T05:58:04.463Z,23.90
2022-08-05T06:00:50.523Z,23.80
2022-08-05T06:03:53.577Z,23.70
2022-08-05T06:06:46.684Z,23.80
2022-08-05T06:09:50.206Z,23.80
2022-08-05T06:12:42.316Z,23.70
2022-08-05T06:16:29.649Z,23.80
2022-08-05T06:18:33.966Z,23.60
2022-08-05T06:21:25.207Z,23.50
2022-08-05T06:24:25.846Z,23.50
2022-08-05T06:27:17.194Z,23.60
2022-08-05T06:30:21.305Z,23.60
2022-08-05T06:33:09.780Z,23.60
2022-08-05T06:36:07.113Z,23.50
2022-08-05T06:38:55.967Z,23.40
2022-08-05T06:41:41.882Z,23.40
2022-08-05T06:44:31.631Z,23.40
2022-08-05T06:47:30.293Z,23.40
2022-08-05T06:50:23.032Z,23.40
2022-08-05T06:53:11.547Z,23.40
2022-08-05T06:56:25.879Z,23.30
2022-08-05T06:59:14.501Z,23.40
2022-08-05T07:02:00.864Z,23.40
2022-08-05T07:04:46.863Z,23.40
2022-08-05T07:07:43.127Z,23.40
2022-08-05T07:10:32.539Z,23.50
2022-08-05T07:13:59.171Z,23.50
2022-08-05T07:17:59.397Z,23.40
2022-08-05T07:20:32.421Z,23.40
2022-08-05T07:23:04.436Z,23.30
2022-08-05T07:25:55.316Z,23.40
2022-08-05T07:28:42.341Z,23.40
2022-08-05T07:31:41.123Z,23.50
2022-08-05T07:34:33.831Z,23.40
2022-08-05T07:37:19.491Z,23.40
2022-08-05T07:40:32.557Z,23.40
2022-08-05T07:43:20.182Z,23.20
2022-08-05T07:46:06.565Z,23.30
2022-08-05T07:49:10.473Z,23.20
2022-08-05T07:51:56.252Z,23.10
2022-08-05T07:54:49.057Z,22.70
2022-08-05T07:57:41.885Z,22.70
2022-08-05T08:00:37.887Z,22.70
2022-08-05T08:03:24.517Z,22.80
2022-08-05T08:06:31.015Z,22.70
2022-08-05T08:09:16.400Z,22.80
2022-08-05T08:12:16.494Z,22.70
2022-08-05T08:15:15.818Z,22.50
2022-08-05T08:18:01.969Z,22.50
2022-08-05T08:21:02.503Z,22.60
2022-08-05T08:24:00.969Z,22.50
2022-08-05T08:26:50.882Z,22.70
2022-08-05T08:30:05.466Z,22.70
2022-08-05T08:32:44.045Z,22.80
2022-08-05T08:35:35.107Z,22.30
2022-08-05T08:38:32.233Z,22.40
2022-08-05T08:41:26.222Z,22.40
2022-08-05T08:45:16.987Z,22.20
2022-08-05T08:48:06.276Z,22.10
2022-08-05T08:51:03.238Z,22.20
2022-08-05T08:53:49.922Z,22.30
2022-08-05T08:56:35.624Z,22.30
2022-08-05T08:59:33.932Z,22.00
2022-08-05T09:02:21.267Z,21.80
2022-08-05T09:05:17.301Z,21.70
2022-08-05T09:08:04.112Z,21.80
2022-08-05T09:10:51.347Z,21.90
2022-08-05T09:14:00.803Z,22.00
2022-08-05T09:16:48.570Z,22.20
2022-08-05T09:19:36.830Z,22.40
2022-08-05T09:23:05.524Z,22.60
2022-08-05T09:26:08.595Z,22.80
2022-08-05T09:29:01.349Z,22.70
2022-08-05T09:32:46.102Z,22.70
2022-08-05T09:35:26.577Z,22.80
2022-08-05T09:38:18.260Z,22.70
2022-08-05T09:41:12.754Z,22.80
2022-08-05T09:44:01.841Z,22.70
2022-08-05T09:46:53.532Z,22.80
2022-08-05T09:50:00.951Z,22.80
2022-08-05T09:52:48.401Z,22.90
2022-08-05T09:55:57.571Z,23.00
2022-08-05T09:59:03.195Z,22.90
2022-08-05T10:01:58.172Z,22.90
2022-08-05T10:04:45.496Z,22.70
2022-08-05T10:08:10.628Z,22.40
2022-08-05T10:10:57.545Z,22.40
2022-08-05T10:13:49.250Z,22.40
2022-08-05T10:16:41.981Z,22.30
2022-08-05T10:20:03.550Z,22.30
2022-08-05T10:22:48.740Z,22.40
2022-08-05T10:25:36.934Z,22.20
2022-08-05T10:28:30.404Z,22.30
2022-08-05T10:32:49.411Z,22.30
2022-08-05T10:34:25.639Z,22.40
2022-08-05T10:37:16.131Z,22.30
2022-08-05T10:40:17.900Z,22.00
2022-08-05T10:43:41.320Z,22.20
2022-08-05T10:46:56.594Z,21.90
2022-08-05T10:50:32.820Z,22.00
2022-08-05T10:53:38.231Z,21.90
2022-08-05T10:56:26.552Z,22.00
2022-08-05T11:00:02.639Z,22.10
2022-08-05T11:02:37.678Z,22.10
2022-08-05T11:05:29.010Z,22.20
2022-08-05T11:08:36.575Z,22.30
2022-08-05T11:11:44.443Z,22.20
2022-08-05T11:18:00.349Z,21.90
2022-08-05T11:20:51.466Z,21.70
2022-08-05T11:24:05.161Z,21.60
2022-08-05T11:27:51.440Z,21.60
2022-08-05T11:30:58.462Z,21.40
2022-08-05T11:33:47.912Z,21.40
2022-08-05T11:36:40.517Z,21.60
2022-08-05T11:40:03.418Z,21.50
2022-08-05T11:42:49.871Z,21.40
2022-08-05T11:46:30.870Z,21.50
2022-08-05T11:48:54.533Z,21.60
2022-08-05T11:51:49.428Z,21.50
2022-08-05T11:54:38.002Z,21.60
2022-08-05T11:58:08.679Z,21.50
2022-08-05T12:00:38.236Z,21.60
2022-08-05T12:03:31.625Z,21.50
2022-08-05T12:06:22.938Z,21.60
2022-08-05T12:09:08.523Z,21.60
2022-08-05T12:12:09.213Z,21.60
2022-08-05T12:14:56.333Z,21.70
2022-08-05T12:18:04.065Z,21.80
2022-08-05T12:20:48.769Z,21.80
2022-08-05T12:23:35.121Z,21.90
2022-08-05T12:26:43.815Z,21.90
2022-08-05T12:29:38.735Z,21.90
2022-08-05T12:32:24.875Z,21.90
2022-08-05T12:35:11.551Z,22.00
2022-08-05T12:38:02.372Z,22.00
2022-08-05T12:40:48.548Z,22.00
2022-08-05T12:43:48.267Z,22.10
2022-08-05T12:46:36.365Z,22.10
2022-08-05T12:49:25.605Z,22.20
2022-08-05T12:52:23.819Z,22.10
2022-08-05T12:55:22.075Z,22.80
2022-08-05T12:58:52.425Z,22.30
2022-08-05T13:02:03.683Z,22.30
2022-08-05T13:04:21.409Z,22.40
2022-08-05T13:07:16.101Z,22.60
2022-08-05T13:10:20.185Z,22.80
2022-08-05T13:13:06.702Z,22.90
2022-08-05T13:15:54.908Z,23.00
2022-08-05T13:18:55.048Z,23.10
2022-08-05T13:21:48.159Z,23.30
2022-08-05T13:24:57.396Z,23.40
2022-08-05T13:27:50.231Z,23.70
2022-08-05T13:30:38.928Z,23.90
2022-08-05T13:34:24.792Z,24.00
2022-08-05T13:36:30.929Z,24.00
2022-08-05T13:39:24.312Z,24.00
2022-08-05T13:42:23.444Z,24.00
2022-08-05T13:45:12.077Z,24.00
2022-08-05T13:48:08.618Z,24.00
2022-08-05T13:50:55.680Z,23.90
2022-08-05T13:53:48.152Z,23.80
2022-08-05T13:56:34.081Z,23.90
2022-08-05T13:59:26.840Z,23.90
2022-08-05T14:02:20.079Z,23.80
2022-08-05T14:05:12.160Z,23.70
2022-08-05T14:08:08.680Z,23.70
2022-08-05T14:11:20.528Z,23.60
2022-08-05T14:14:08.681Z,23.60
2022-08-05T14:16:55.360Z,23.60
2022-08-05T14:19:55.310Z,23.50
2022-08-05T14:22:49.966Z,23.50
2022-08-05T14:25:35.849Z,23.70
2022-08-05T14:28:31.211Z,23.90
2022-08-05T14:31:17.542Z,24.40
2022-08-05T14:34:23.700Z,24.80
2022-08-05T14:37:09.433Z,25.40
2022-08-05T14:39:59.120Z,25.80
2022-08-05T14:42:44.888Z,26.30
2022-08-05T14:45:31.165Z,26.60
2022-08-05T14:48:32.688Z,26.80
2022-08-05T14:51:21.557Z,26.60
2022-08-05T14:54:28.599Z,26.20
2022-08-05T14:57:14.485Z,25.90
2022-08-05T14:59:59.935Z,25.80
2022-08-05T15:02:45.362Z,25.60
2022-08-05T15:06:12.705Z,25.40
2022-08-05T15:09:01.357Z,25.30
2022-08-05T15:11:53.164Z,25.20
2022-08-05T15:14:48.068Z,25.10
2022-08-05T15:17:45.738Z,25.00
2022-08-05T15:20:33.895Z,25.00
2022-08-05T15:23:19.556Z,25.20
2022-08-05T15:26:05.064Z,25.20
2022-08-05T15:28:53.099Z,25.60
2022-08-05T15:31:39.288Z,25.70
2022-08-05T15:34:33.209Z,25.90
2022-08-05T15:38:08.601Z,25.90
2022-08-05T15:40:58.491Z,25.90
2022-08-05T15:43:32.184Z,25.80
2022-08-05T15:46:31.961Z,25.80
2022-08-05T15:49:26.307Z,25.50
2022-08-05T15:52:51.906Z,25.40
2022-08-05T15:56:03.111Z,25.20
2022-08-05T15:58:37.188Z,25.10
2022-08-05T16:01:29.555Z,25.20
2022-08-05T16:04:25.970Z,25.30
2022-08-05T16:07:11.866Z,25.80
2022-08-05T16:09:59.277Z,26.00
2022-08-05T16:12:45.031Z,26.20
2022-08-05T16:15:32.297Z,26.60
2022-08-05T16:18:19.272Z,26.90
2022-08-05T16:21:06.866Z,27.10
2022-08-05T16:23:53.708Z,27.20
2022-08-05T16:26:55.401Z,27.30
2022-08-05T16:29:45.458Z,27.40
2022-08-05T16:32:36.172Z,27.40
2022-08-05T16:35:27.825Z,27.10
2022-08-05T16:38:24.940Z,27.10
2022-08-05T16:42:11.955Z,26.90
2022-08-05T16:44:21.082Z,26.70
2022-08-05T16:47:24.727Z,26.60
2022-08-05T16:50:17.930Z,26.50
2022-08-05T16:53:12.340Z,26.30
2022-08-05T16:56:07.957Z,26.10
2022-08-05T16:58:53.924Z,25.80
2022-08-05T17:01:52.877Z,25.50
2022-08-05T17:04:41.313Z,25.50
2022-08-05T17:07:39.211Z,25.40
2022-08-05T17:10:32.628Z,25.30
2022-08-05T17:13:21.294Z,25.30
2022-08-05T17:16:33.319Z,25.40
2022-08-05T17:19:19.377Z,25.30
2022-08-05T17:22:05.428Z,25.30
2022-08-05T17:24:57.203Z,25.20
2022-08-05T17:27:44.140Z,25.10
2022-08-05T17:30:29.905Z,25.10
2022-08-05T17:33:15.690Z,25.00
2022-08-05T17:36:07.485Z,24.90
2022-08-05T17:38:55.911Z,24.90
2022-08-05T17:42:28.441Z,24.90
2022-08-05T17:44:50.321Z,24.80
2022-08-05T17:47:37.243Z,24.80
2022-08-05T17:50:28.749Z,24.80
2022-08-05T17:53:15.787Z,24.60
2022-08-05T17:56:04.260Z,24.60
2022-08-05T17:58:51.093Z,24.70
2022-08-05T18:01:42.707Z,24.80
2022-08-05T18:04:35.984Z,24.60
2022-08-05T18:07:41.293Z,24.50
2022-08-05T18:10:27.931Z,24.60
2022-08-05T18:13:17.989Z,24.50
2022-08-05T18:16:05.207Z,24.50
2022-08-05T18:18:51.092Z,24.30
2022-08-05T18:22:07.677Z,24.30
2022-08-05T18:24:43.472Z,24.30
2022-08-05T18:27:29.721Z,24.10
2022-08-05T18:30:18.154Z,24.10
2022-08-05T18:33:04.025Z,24.10
2022-08-05T18:36:03.691Z,24.00
2022-08-05T18:38:52.201Z,23.90
2022-08-05T18:41:56.854Z,23.90
2022-08-05T18:44:51.472Z,23.60
2022-08-05T18:47:42.481Z,23.60
2022-08-05T18:50:47.140Z,23.60
2022-08-05T18:53:34.738Z,23.50
2022-08-05T18:56:30.369Z,23.40
2022-08-05T18:59:43.059Z,23.40
2022-08-05T19:02:27.446Z,23.40
2022-08-05T19:06:11.364Z,23.40
2022-08-05T19:08:19.675Z,23.30
2022-08-05T19:11:07.529Z,23.20
2022-08-05T19:14:00.854Z,23.20
2022-08-05T19:16:48.424Z,23.10
2022-08-05T19:19:34.265Z,23.00
2022-08-05T19:22:27.584Z,22.80
2022-08-05T19:25:22.172Z,22.60
2022-08-05T19:28:15.194Z,22.50
2022-08-05T19:31:01.352Z,22.50
2022-08-05T19:33:56.696Z,22.50
2022-08-05T19:36:42.565Z,22.40
2022-08-05T19:39:30.041Z,22.40
2022-08-05T19:42:18.481Z,22.30
2022-08-05T19:45:21.141Z,22.20
2022-08-05T19:48:14.380Z,22.10
2022-08-05T19:51:00.216Z,22.10
2022-08-05T19:54:03.633Z,22.00
2022-08-05T19:56:51.751Z,22.00
2022-08-05T20:00:00.806Z,21.90
2022-08-05T20:02:44.901Z,21.90
2022-08-05T20:05:50.292Z,21.80
2022-08-05T20:08:37.424Z,21.90
2022-08-05T20:11:24.636Z,21.80
2022-08-05T20:14:12.756Z,21.80
2022-08-05T20:17:03.544Z,21.70
2022-08-05T20:19:57.667Z,21.70
2022-08-05T20:22:46.734Z,21.70
2022-08-05T20:25:33.743Z,21.60
2022-08-05T20:28:19.255Z,21.40
2022-08-05T20:31:05.309Z,21.50
2022-08-05T20:33:51.727Z,21.50
2022-08-05T20:36:38.973Z,21.60
2022-08-05T20:39:36.564Z,21.60
2022-08-05T20:42:22.937Z,21.50
2022-08-05T20:45:13.917Z,21.50
2022-08-05T20:47:59.959Z,21.60
2022-08-05T20:50:45.886Z,21.70
2022-08-05T20:53:36.441Z,21.60
2022-08-05T20:56:28.197Z,21.60
2022-08-05T20:59:26.595Z,21.50
2022-08-05T21:02:12.646Z,21.50
2022-08-05T21:05:05.564Z,21.50
2022-08-05T21:07:55.145Z,21.40
2022-08-05T21:10:49.160Z,21.30
2022-08-05T21:13:48.088Z,21.30
2022-08-05T21:16:41.594Z,21.20
2022-08-05T21:19:28.813Z,21.20
2022-08-05T21:22:33.347Z,21.20
2022-08-05T21:25:19.019Z,21.10
2022-08-05T21:28:04.772Z,21.00
2022-08-05T21:30:51.053Z,21.00
2022-08-05T21:33:40.096Z,21.00
2022-08-05T21:36:30.047Z,21.00
2022-08-05T21:39:26.529Z,21.00
2022-08-05T21:42:30.792Z,20.90
2022-08-05T21:45:24.728Z,20.90
2022-08-05T21:48:12.009Z,20.80
2022-08-05T21:50:59.533Z,20.80
2022-08-05T21:53:45.216Z,20.70
2022-08-05T21:56:53.376Z,20.70
2022-08-05T22:00:03.020Z,20.70
2022-08-05T22:02:46.680Z,20.70
2022-08-05T22:05:48.345Z,20.70
2022-08-05T22:08:35.449Z,20.70
2022-08-05T22:11:35.138Z,20.60
2022-08-05T22:14:35.723Z,20.60
2022-08-05T22:17:23.367Z,20.60
2022-08-05T22:20:14.792Z,20.60
2022-08-05T22:23:21.462Z,20.60
2022-08-05T22:26:26.476Z,20.60
2022-08-05T22:29:12.507Z,20.60
2022-08-05T22:32:02.813Z,20.60
2022-08-05T22:34:48.645Z,20.60
2022-08-05T22:37:58.533Z,20.50
2022-08-05T22:40:39.488Z,20.40
2022-08-05T22:43:36.810Z,20.40
2022-08-05T22:46:25.913Z,20.40
2022-08-05T22:50:16.343Z,20.40
2022-08-05T22:52:23.040Z,20.30
2022-08-05T22:55:21.406Z,20.30
2022-08-05T22:58:07.417Z,20.30
2022-08-05T23:00:57.440Z,20.30
2022-08-05T23:03:59.308Z,20.30
2022-08-05T23:06:45.511Z,20.20
2022-08-05T23:09:53.362Z,20.20
2022-08-05T23:12:40.712Z,20.20
2022-08-05T23:15:35.172Z,20.20
2022-08-05T23:18:20.920Z,20.20
2022-08-05T23:21:10.240Z,20.20
2022-08-05T23:23:56.037Z,20.00
2022-08-05T23:26:41.684Z,20.00
2022-08-05T23:29:30.128Z,20.00
2022-08-05T23:32:23.060Z,19.90
2022-08-05T23:35:09.585Z,19.80
2022-08-05T23:37:55.223Z,19.60
2022-08-05T23:40:42.236Z,19.50
2022-08-05T23:44:04.754Z,19.50
2022-08-05T23:46:40.934Z,19.40
2022-08-05T23:49:36.086Z,19.40
2022-08-05T23:52:29.316Z,19.40
2022-08-05T23:55:16.369Z,19.40
2022-08-05T23:58:03.046Z,19.40
